sensor_id;sensor_type;location;lat;lon;timestamp;P1;durP1;ratioP1;P2;durP2;ratioP2
80637;SDS011;69991;51.760;19.528;2024-02-15T00:00:43;27.40;;;12.30;;
80637;SDS011;69991;51.760;19.528;2024-02-15T00:03:39;24.50;;;12.40;;
80637;SDS011;69991;51.760;19.528;2024-02-15T00:06:08;26.00;;;12.40;;
80637;SDS011;69991;51.760;19.528;2024-02-15T00:08:38;26.00;;;12.80;;
80637;SDS011;69991;51.760;19.528;2024-02-15T00:11:07;23.80;;;13.00;;
80637;SDS011;69991;51.760;19.528;2024-02-15T00:13:37;25.70;;;12.10;;
80637;SDS011;69991;51.760;19.528;2024-02-15T00:16:06;26.50;;;12.60;;
80637;SDS011;69991;51.760;19.528;2024-02-15T00:18:35;23.90;;;11.50;;
80637;SDS011;69991;51.760;19.528;2024-02-15T00:21:05;24.20;;;11.60;;
80637;SDS011;69991;51.760;19.528;2024-02-15T00:23:34;25.00;;;12.20;;
80637;SDS011;69991;51.760;19.528;2024-02-15T00:26:04;23.10;;;11.30;;
80637;SDS011;69991;51.760;19.528;2024-02-15T00:28:33;21.60;;;11.30;;
80637;SDS011;69991;51.760;19.528;2024-02-15T00:31:05;21.50;;;11.20;;
80637;SDS011;69991;51.760;19.528;2024-02-15T00:33:34;19.40;;;11.40;;
80637;SDS011;69991;51.760;19.528;2024-02-15T00:36:09;18.60;;;10.50;;
80637;SDS011;69991;51.760;19.528;2024-02-15T00:38:38;22.90;;;11.00;;
80637;SDS011;69991;51.760;19.528;2024-02-15T00:41:07;25.60;;;12.70;;
80637;SDS011;69991;51.760;19.528;2024-02-15T00:43:36;26.20;;;13.30;;
80637;SDS011;69991;51.760;19.528;2024-02-15T00:46:11;25.40;;;13.10;;
80637;SDS011;69991;51.760;19.528;2024-02-15T00:48:40;24.20;;;12.90;;
80637;SDS011;69991;51.760;19.528;2024-02-15T00:51:09;25.50;;;13.10;;
80637;SDS011;69991;51.760;19.528;2024-02-15T00:53:39;24.10;;;11.50;;
80637;SDS011;69991;51.760;19.528;2024-02-15T00:56:09;24.60;;;12.40;;
80637;SDS011;69991;51.760;19.528;2024-02-15T00:58:37;24.00;;;12.00;;
80637;SDS011;69991;51.760;19.528;2024-02-15T01:01:07;20.70;;;11.40;;
80637;SDS011;69991;51.760;19.528;2024-02-15T01:03:37;26.20;;;11.90;;
80637;SDS011;69991;51.760;19.528;2024-02-15T01:06:07;23.20;;;11.50;;
80637;SDS011;69991;51.760;19.528;2024-02-15T01:08:36;25.80;;;11.80;;
80637;SDS011;69991;51.760;19.528;2024-02-15T01:11:05;20.60;;;11.40;;
80637;SDS011;69991;51.760;19.528;2024-02-15T01:13:34;22.00;;;10.90;;
80637;SDS011;69991;51.760;19.528;2024-02-15T01:16:04;20.70;;;10.90;;
80637;SDS011;69991;51.760;19.528;2024-02-15T01:18:33;21.80;;;10.60;;
80637;SDS011;69991;51.760;19.528;2024-02-15T01:21:04;24.50;;;12.00;;
80637;SDS011;69991;51.760;19.528;2024-02-15T01:23:33;24.80;;;13.60;;
80637;SDS011;69991;51.760;19.528;2024-02-15T01:26:06;25.70;;;13.90;;
80637;SDS011;69991;51.760;19.528;2024-02-15T01:28:34;24.30;;;12.10;;
80637;SDS011;69991;51.760;19.528;2024-02-15T01:31:03;23.50;;;12.90;;
80637;SDS011;69991;51.760;19.528;2024-02-15T01:33:32;22.20;;;12.50;;
80637;SDS011;69991;51.760;19.528;2024-02-15T01:36:02;26.20;;;13.20;;
80637;SDS011;69991;51.760;19.528;2024-02-15T01:38:32;23.50;;;12.50;;
80637;SDS011;69991;51.760;19.528;2024-02-15T01:41:01;25.80;;;12.50;;
80637;SDS011;69991;51.760;19.528;2024-02-15T01:43:31;23.60;;;12.80;;
80637;SDS011;69991;51.760;19.528;2024-02-15T01:46:00;25.00;;;11.70;;
80637;SDS011;69991;51.760;19.528;2024-02-15T01:48:32;22.80;;;12.10;;
80637;SDS011;69991;51.760;19.528;2024-02-15T01:51:01;27.00;;;14.40;;
80637;SDS011;69991;51.760;19.528;2024-02-15T01:53:32;31.60;;;15.70;;
80637;SDS011;69991;51.760;19.528;2024-02-15T01:56:01;30.50;;;15.70;;
80637;SDS011;69991;51.760;19.528;2024-02-15T01:58:31;26.90;;;14.70;;
80637;SDS011;69991;51.760;19.528;2024-02-15T02:01:01;28.10;;;14.70;;
80637;SDS011;69991;51.760;19.528;2024-02-15T02:03:30;27.60;;;14.00;;
80637;SDS011;69991;51.760;19.528;2024-02-15T02:06:00;25.20;;;14.70;;
80637;SDS011;69991;51.760;19.528;2024-02-15T02:08:29;27.70;;;13.50;;
80637;SDS011;69991;51.760;19.528;2024-02-15T02:10:58;25.60;;;13.60;;
80637;SDS011;69991;51.760;19.528;2024-02-15T02:13:28;28.80;;;13.50;;
80637;SDS011;69991;51.760;19.528;2024-02-15T02:15:59;23.60;;;14.30;;
80637;SDS011;69991;51.760;19.528;2024-02-15T02:18:29;25.20;;;15.60;;
80637;SDS011;69991;51.760;19.528;2024-02-15T02:20:58;25.50;;;13.70;;
80637;SDS011;69991;51.760;19.528;2024-02-15T02:23:27;32.10;;;16.00;;
80637;SDS011;69991;51.760;19.528;2024-02-15T02:25:57;28.80;;;14.70;;
80637;SDS011;69991;51.760;19.528;2024-02-15T02:28:26;25.10;;;13.40;;
80637;SDS011;69991;51.760;19.528;2024-02-15T02:30:55;24.10;;;13.40;;
80637;SDS011;69991;51.760;19.528;2024-02-15T02:33:25;25.30;;;14.60;;
80637;SDS011;69991;51.760;19.528;2024-02-15T02:35:57;26.00;;;13.70;;
80637;SDS011;69991;51.760;19.528;2024-02-15T02:38:26;25.80;;;14.00;;
80637;SDS011;69991;51.760;19.528;2024-02-15T02:40:56;21.60;;;11.70;;
80637;SDS011;69991;51.760;19.528;2024-02-15T02:43:25;22.30;;;12.80;;
80637;SDS011;69991;51.760;19.528;2024-02-15T02:45:54;25.30;;;13.60;;
80637;SDS011;69991;51.760;19.528;2024-02-15T02:48:23;25.50;;;14.10;;
80637;SDS011;69991;51.760;19.528;2024-02-15T02:50:52;28.10;;;15.70;;
80637;SDS011;69991;51.760;19.528;2024-02-15T02:53:21;29.90;;;16.40;;
80637;SDS011;69991;51.760;19.528;2024-02-15T02:55:51;27.20;;;15.10;;
80637;SDS011;69991;51.760;19.528;2024-02-15T02:58:20;26.80;;;14.40;;
80637;SDS011;69991;51.760;19.528;2024-02-15T03:00:49;28.50;;;15.00;;
80637;SDS011;69991;51.760;19.528;2024-02-15T03:03:20;28.10;;;15.50;;
80637;SDS011;69991;51.760;19.528;2024-02-15T03:05:49;27.90;;;14.50;;
80637;SDS011;69991;51.760;19.528;2024-02-15T03:08:18;30.70;;;14.70;;
80637;SDS011;69991;51.760;19.528;2024-02-15T03:10:47;25.60;;;14.70;;
80637;SDS011;69991;51.760;19.528;2024-02-15T03:13:19;27.30;;;14.90;;
80637;SDS011;69991;51.760;19.528;2024-02-15T03:15:49;29.20;;;16.40;;
80637;SDS011;69991;51.760;19.528;2024-02-15T03:18:19;30.90;;;17.20;;
80637;SDS011;69991;51.760;19.528;2024-02-15T03:20:49;26.70;;;16.80;;
80637;SDS011;69991;51.760;19.528;2024-02-15T03:23:19;25.90;;;14.90;;
80637;SDS011;69991;51.760;19.528;2024-02-15T03:25:48;27.70;;;15.40;;
80637;SDS011;69991;51.760;19.528;2024-02-15T03:28:18;28.50;;;15.60;;
80637;SDS011;69991;51.760;19.528;2024-02-15T03:30:48;32.70;;;16.40;;
80637;SDS011;69991;51.760;19.528;2024-02-15T03:33:18;28.80;;;16.20;;
80637;SDS011;69991;51.760;19.528;2024-02-15T03:35:49;27.90;;;14.80;;
80637;SDS011;69991;51.760;19.528;2024-02-15T03:38:19;28.30;;;15.10;;
80637;SDS011;69991;51.760;19.528;2024-02-15T03:40:51;27.20;;;15.20;;
80637;SDS011;69991;51.760;19.528;2024-02-15T03:43:19;30.50;;;16.40;;
80637;SDS011;69991;51.760;19.528;2024-02-15T03:45:49;29.70;;;16.00;;
80637;SDS011;69991;51.760;19.528;2024-02-15T03:48:18;29.90;;;16.80;;
80637;SDS011;69991;51.760;19.528;2024-02-15T03:50:47;28.70;;;15.00;;
80637;SDS011;69991;51.760;19.528;2024-02-15T03:53:17;27.40;;;16.20;;
80637;SDS011;69991;51.760;19.528;2024-02-15T03:55:46;27.00;;;16.90;;
80637;SDS011;69991;51.760;19.528;2024-02-15T03:58:14;30.30;;;16.30;;
80637;SDS011;69991;51.760;19.528;2024-02-15T04:00:45;28.00;;;16.00;;
80637;SDS011;69991;51.760;19.528;2024-02-15T04:03:14;31.20;;;15.80;;
80637;SDS011;69991;51.760;19.528;2024-02-15T04:05:44;27.70;;;15.30;;
80637;SDS011;69991;51.760;19.528;2024-02-15T04:08:14;29.30;;;16.10;;
80637;SDS011;69991;51.760;19.528;2024-02-15T04:10:44;28.90;;;15.90;;
80637;SDS011;69991;51.760;19.528;2024-02-15T04:13:17;29.40;;;17.30;;
80637;SDS011;69991;51.760;19.528;2024-02-15T04:15:46;27.90;;;16.50;;
80637;SDS011;69991;51.760;19.528;2024-02-15T04:18:18;28.40;;;16.00;;
80637;SDS011;69991;51.760;19.528;2024-02-15T04:20:47;27.70;;;16.10;;
80637;SDS011;69991;51.760;19.528;2024-02-15T04:23:17;27.70;;;15.30;;
80637;SDS011;69991;51.760;19.528;2024-02-15T04:25:48;26.60;;;15.00;;
80637;SDS011;69991;51.760;19.528;2024-02-15T04:28:19;27.60;;;15.00;;
80637;SDS011;69991;51.760;19.528;2024-02-15T04:30:48;24.00;;;14.20;;
80637;SDS011;69991;51.760;19.528;2024-02-15T04:33:18;25.10;;;14.10;;
80637;SDS011;69991;51.760;19.528;2024-02-15T04:35:47;27.30;;;16.00;;
80637;SDS011;69991;51.760;19.528;2024-02-15T04:38:18;28.20;;;16.10;;
80637;SDS011;69991;51.760;19.528;2024-02-15T04:40:48;33.20;;;17.40;;
80637;SDS011;69991;51.760;19.528;2024-02-15T04:43:17;26.90;;;15.30;;
80637;SDS011;69991;51.760;19.528;2024-02-15T04:45:47;27.70;;;14.90;;
80637;SDS011;69991;51.760;19.528;2024-02-15T04:48:16;28.50;;;16.20;;
80637;SDS011;69991;51.760;19.528;2024-02-15T04:50:46;25.80;;;14.90;;
80637;SDS011;69991;51.760;19.528;2024-02-15T04:53:16;30.90;;;15.30;;
80637;SDS011;69991;51.760;19.528;2024-02-15T04:55:44;30.50;;;15.80;;
80637;SDS011;69991;51.760;19.528;2024-02-15T04:58:13;31.10;;;16.00;;
80637;SDS011;69991;51.760;19.528;2024-02-15T05:00:42;25.50;;;14.40;;
80637;SDS011;69991;51.760;19.528;2024-02-15T05:03:11;26.10;;;15.40;;
80637;SDS011;69991;51.760;19.528;2024-02-15T05:05:41;31.80;;;16.20;;
80637;SDS011;69991;51.760;19.528;2024-02-15T05:08:10;28.30;;;16.40;;
80637;SDS011;69991;51.760;19.528;2024-02-15T05:10:39;25.50;;;14.60;;
80637;SDS011;69991;51.760;19.528;2024-02-15T05:13:08;26.50;;;16.00;;
80637;SDS011;69991;51.760;19.528;2024-02-15T05:15:38;28.00;;;14.80;;
80637;SDS011;69991;51.760;19.528;2024-02-15T05:18:08;29.70;;;15.50;;
80637;SDS011;69991;51.760;19.528;2024-02-15T05:20:37;26.10;;;14.80;;
80637;SDS011;69991;51.760;19.528;2024-02-15T05:23:07;28.10;;;14.90;;
80637;SDS011;69991;51.760;19.528;2024-02-15T05:25:36;25.40;;;14.70;;
80637;SDS011;69991;51.760;19.528;2024-02-15T05:28:05;30.40;;;16.60;;
80637;SDS011;69991;51.760;19.528;2024-02-15T05:30:36;27.30;;;17.10;;
80637;SDS011;69991;51.760;19.528;2024-02-15T05:33:08;27.80;;;15.60;;
80637;SDS011;69991;51.760;19.528;2024-02-15T05:35:39;29.00;;;15.80;;
80637;SDS011;69991;51.760;19.528;2024-02-15T05:38:10;28.90;;;16.40;;
80637;SDS011;69991;51.760;19.528;2024-02-15T05:40:43;26.30;;;14.90;;
80637;SDS011;69991;51.760;19.528;2024-02-15T05:43:12;29.30;;;16.80;;
80637;SDS011;69991;51.760;19.528;2024-02-15T05:45:42;30.20;;;15.30;;
80637;SDS011;69991;51.760;19.528;2024-02-15T05:48:14;27.50;;;16.70;;
80637;SDS011;69991;51.760;19.528;2024-02-15T05:50:43;28.80;;;15.40;;
80637;SDS011;69991;51.760;19.528;2024-02-15T05:53:12;29.60;;;16.10;;
80637;SDS011;69991;51.760;19.528;2024-02-15T05:55:41;28.80;;;17.10;;
80637;SDS011;69991;51.760;19.528;2024-02-15T05:58:13;31.20;;;17.20;;
80637;SDS011;69991;51.760;19.528;2024-02-15T06:00:43;28.40;;;16.80;;
80637;SDS011;69991;51.760;19.528;2024-02-15T06:03:19;27.60;;;16.10;;
80637;SDS011;69991;51.760;19.528;2024-02-15T06:05:53;27.50;;;16.10;;
80637;SDS011;69991;51.760;19.528;2024-02-15T06:08:27;27.30;;;16.30;;
80637;SDS011;69991;51.760;19.528;2024-02-15T06:11:00;22.80;;;13.90;;
80637;SDS011;69991;51.760;19.528;2024-02-15T06:13:30;29.70;;;17.10;;
80637;SDS011;69991;51.760;19.528;2024-02-15T06:16:00;77.30;;;43.10;;
80637;SDS011;69991;51.760;19.528;2024-02-15T06:18:29;33.10;;;18.80;;
80637;SDS011;69991;51.760;19.528;2024-02-15T06:21:00;26.80;;;15.60;;
80637;SDS011;69991;51.760;19.528;2024-02-15T06:23:31;29.80;;;16.40;;
80637;SDS011;69991;51.760;19.528;2024-02-15T06:28:32;30.90;;;16.20;;
80637;SDS011;69991;51.760;19.528;2024-02-15T06:31:19;29.10;;;15.70;;
80637;SDS011;69991;51.760;19.528;2024-02-15T06:34:07;28.30;;;15.60;;
80637;SDS011;69991;51.760;19.528;2024-02-15T06:36:55;27.40;;;14.70;;
80637;SDS011;69991;51.760;19.528;2024-02-15T06:39:44;29.20;;;17.00;;
80637;SDS011;69991;51.760;19.528;2024-02-15T06:42:17;26.00;;;14.60;;
80637;SDS011;69991;51.760;19.528;2024-02-15T06:44:49;25.40;;;14.40;;
80637;SDS011;69991;51.760;19.528;2024-02-15T06:47:18;27.10;;;15.20;;
80637;SDS011;69991;51.760;19.528;2024-02-15T06:49:48;25.80;;;13.70;;
80637;SDS011;69991;51.760;19.528;2024-02-15T06:52:20;31.90;;;16.50;;
80637;SDS011;69991;51.760;19.528;2024-02-15T06:54:49;30.10;;;16.80;;
80637;SDS011;69991;51.760;19.528;2024-02-15T06:57:19;28.90;;;17.20;;
80637;SDS011;69991;51.760;19.528;2024-02-15T06:59:49;29.50;;;15.00;;
80637;SDS011;69991;51.760;19.528;2024-02-15T07:02:18;27.40;;;15.50;;
80637;SDS011;69991;51.760;19.528;2024-02-15T07:04:47;25.80;;;14.90;;
80637;SDS011;69991;51.760;19.528;2024-02-15T07:07:17;27.80;;;15.00;;
80637;SDS011;69991;51.760;19.528;2024-02-15T07:09:46;25.30;;;14.30;;
80637;SDS011;69991;51.760;19.528;2024-02-15T07:12:15;26.90;;;14.90;;
80637;SDS011;69991;51.760;19.528;2024-02-15T07:14:44;25.10;;;13.80;;
80637;SDS011;69991;51.760;19.528;2024-02-15T07:17:15;28.20;;;13.80;;
80637;SDS011;69991;51.760;19.528;2024-02-15T07:19:44;27.40;;;14.20;;
80637;SDS011;69991;51.760;19.528;2024-02-15T07:22:13;27.70;;;15.10;;
80637;SDS011;69991;51.760;19.528;2024-02-15T07:24:43;26.00;;;15.80;;
80637;SDS011;69991;51.760;19.528;2024-02-15T07:27:12;30.80;;;16.10;;
80637;SDS011;69991;51.760;19.528;2024-02-15T07:29:41;27.40;;;13.70;;
80637;SDS011;69991;51.760;19.528;2024-02-15T07:32:10;29.40;;;16.20;;
80637;SDS011;69991;51.760;19.528;2024-02-15T07:34:40;26.90;;;14.50;;
80637;SDS011;69991;51.760;19.528;2024-02-15T07:37:11;27.10;;;15.30;;
80637;SDS011;69991;51.760;19.528;2024-02-15T07:39:41;28.70;;;15.90;;
80637;SDS011;69991;51.760;19.528;2024-02-15T07:42:10;26.30;;;14.50;;
80637;SDS011;69991;51.760;19.528;2024-02-15T07:44:41;27.20;;;14.20;;
80637;SDS011;69991;51.760;19.528;2024-02-15T07:47:11;26.00;;;14.70;;
80637;SDS011;69991;51.760;19.528;2024-02-15T07:49:41;28.30;;;15.80;;
80637;SDS011;69991;51.760;19.528;2024-02-15T07:52:10;29.30;;;15.30;;
80637;SDS011;69991;51.760;19.528;2024-02-15T07:54:39;27.00;;;14.80;;
80637;SDS011;69991;51.760;19.528;2024-02-15T07:57:08;29.30;;;15.90;;
80637;SDS011;69991;51.760;19.528;2024-02-15T07:59:37;25.30;;;14.40;;
80637;SDS011;69991;51.760;19.528;2024-02-15T08:02:08;26.70;;;15.30;;
80637;SDS011;69991;51.760;19.528;2024-02-15T08:04:37;24.40;;;13.50;;
80637;SDS011;69991;51.760;19.528;2024-02-15T08:07:10;23.60;;;13.20;;
80637;SDS011;69991;51.760;19.528;2024-02-15T08:09:41;27.30;;;15.00;;
80637;SDS011;69991;51.760;19.528;2024-02-15T08:12:11;29.50;;;15.40;;
80637;SDS011;69991;51.760;19.528;2024-02-15T08:14:40;26.70;;;15.20;;
80637;SDS011;69991;51.760;19.528;2024-02-15T08:17:11;25.90;;;14.90;;
80637;SDS011;69991;51.760;19.528;2024-02-15T08:19:41;26.30;;;14.90;;
80637;SDS011;69991;51.760;19.528;2024-02-15T08:22:14;27.50;;;16.10;;
80637;SDS011;69991;51.760;19.528;2024-02-15T08:24:43;26.80;;;15.70;;
80637;SDS011;69991;51.760;19.528;2024-02-15T08:27:12;28.30;;;15.70;;
80637;SDS011;69991;51.760;19.528;2024-02-15T08:29:42;21.50;;;13.40;;
80637;SDS011;69991;51.760;19.528;2024-02-15T08:32:11;24.10;;;14.20;;
80637;SDS011;69991;51.760;19.528;2024-02-15T08:34:40;25.90;;;15.10;;
80637;SDS011;69991;51.760;19.528;2024-02-15T08:37:09;22.60;;;14.40;;
80637;SDS011;69991;51.760;19.528;2024-02-15T08:39:38;21.70;;;12.90;;
80637;SDS011;69991;51.760;19.528;2024-02-15T08:42:07;21.50;;;13.30;;
80637;SDS011;69991;51.760;19.528;2024-02-15T08:44:36;24.40;;;13.50;;
80637;SDS011;69991;51.760;19.528;2024-02-15T08:47:06;24.70;;;15.60;;
80637;SDS011;69991;51.760;19.528;2024-02-15T08:49:35;22.70;;;12.50;;
80637;SDS011;69991;51.760;19.528;2024-02-15T08:52:05;24.20;;;13.50;;
80637;SDS011;69991;51.760;19.528;2024-02-15T08:54:36;25.10;;;14.70;;
80637;SDS011;69991;51.760;19.528;2024-02-15T08:57:07;22.50;;;13.50;;
80637;SDS011;69991;51.760;19.528;2024-02-15T08:59:36;22.40;;;13.10;;
80637;SDS011;69991;51.760;19.528;2024-02-15T09:02:05;23.20;;;12.00;;
80637;SDS011;69991;51.760;19.528;2024-02-15T09:04:34;22.70;;;12.20;;
80637;SDS011;69991;51.760;19.528;2024-02-15T09:07:03;19.40;;;11.70;;
80637;SDS011;69991;51.760;19.528;2024-02-15T09:09:33;21.10;;;12.20;;
80637;SDS011;69991;51.760;19.528;2024-02-15T09:12:02;22.00;;;12.80;;
80637;SDS011;69991;51.760;19.528;2024-02-15T09:14:35;25.20;;;13.60;;
80637;SDS011;69991;51.760;19.528;2024-02-15T09:17:07;21.10;;;11.70;;
80637;SDS011;69991;51.760;19.528;2024-02-15T09:19:36;20.50;;;12.10;;
80637;SDS011;69991;51.760;19.528;2024-02-15T09:22:05;24.10;;;13.10;;
80637;SDS011;69991;51.760;19.528;2024-02-15T09:24:36;26.00;;;15.70;;
80637;SDS011;69991;51.760;19.528;2024-02-15T09:27:05;21.80;;;13.60;;
80637;SDS011;69991;51.760;19.528;2024-02-15T09:29:34;23.50;;;13.00;;
80637;SDS011;69991;51.760;19.528;2024-02-15T09:32:03;20.80;;;12.80;;
80637;SDS011;69991;51.760;19.528;2024-02-15T09:34:33;21.80;;;12.00;;
80637;SDS011;69991;51.760;19.528;2024-02-15T09:37:02;23.10;;;13.90;;
80637;SDS011;69991;51.760;19.528;2024-02-15T09:39:31;22.40;;;11.90;;
80637;SDS011;69991;51.760;19.528;2024-02-15T09:42:00;21.90;;;12.20;;
80637;SDS011;69991;51.760;19.528;2024-02-15T09:44:30;20.90;;;12.10;;
80637;SDS011;69991;51.760;19.528;2024-02-15T09:47:02;18.30;;;10.40;;
80637;SDS011;69991;51.760;19.528;2024-02-15T09:49:38;17.60;;;10.60;;
80637;SDS011;69991;51.760;19.528;2024-02-15T09:52:09;23.00;;;11.60;;
80637;SDS011;69991;51.760;19.528;2024-02-15T09:54:44;18.50;;;10.70;;
80637;SDS011;69991;51.760;19.528;2024-02-15T09:57:14;14.80;;;9.50;;
80637;SDS011;69991;51.760;19.528;2024-02-15T09:59:45;18.10;;;10.60;;
80637;SDS011;69991;51.760;19.528;2024-02-15T10:02:14;16.60;;;10.40;;
80637;SDS011;69991;51.760;19.528;2024-02-15T10:04:43;17.40;;;11.60;;
80637;SDS011;69991;51.760;19.528;2024-02-15T10:07:15;15.60;;;9.80;;
80637;SDS011;69991;51.760;19.528;2024-02-15T10:09:44;14.00;;;9.70;;
80637;SDS011;69991;51.760;19.528;2024-02-15T10:12:13;14.80;;;9.00;;
80637;SDS011;69991;51.760;19.528;2024-02-15T10:14:47;14.00;;;8.80;;
80637;SDS011;69991;51.760;19.528;2024-02-15T10:17:19;14.60;;;9.20;;
80637;SDS011;69991;51.760;19.528;2024-02-15T10:20:02;16.20;;;9.10;;
80637;SDS011;69991;51.760;19.528;2024-02-15T10:22:32;13.60;;;8.70;;
80637;SDS011;69991;51.760;19.528;2024-02-15T10:25:10;15.00;;;8.70;;
80637;SDS011;69991;51.760;19.528;2024-02-15T10:27:41;18.30;;;9.50;;
80637;SDS011;69991;51.760;19.528;2024-02-15T10:30:18;14.90;;;8.70;;
80637;SDS011;69991;51.760;19.528;2024-02-15T10:32:48;15.00;;;9.00;;
80637;SDS011;69991;51.760;19.528;2024-02-15T10:35:21;13.00;;;8.50;;
80637;SDS011;69991;51.760;19.528;2024-02-15T10:37:50;13.60;;;8.30;;
80637;SDS011;69991;51.760;19.528;2024-02-15T10:40:20;13.50;;;8.30;;
80637;SDS011;69991;51.760;19.528;2024-02-15T10:42:51;13.40;;;7.70;;
80637;SDS011;69991;51.760;19.528;2024-02-15T10:45:20;13.10;;;7.40;;
80637;SDS011;69991;51.760;19.528;2024-02-15T10:47:49;16.30;;;8.50;;
80637;SDS011;69991;51.760;19.528;2024-02-15T10:50:19;23.80;;;13.10;;
80637;SDS011;69991;51.760;19.528;2024-02-15T10:52:56;14.90;;;7.80;;
80637;SDS011;69991;51.760;19.528;2024-02-15T10:58:37;12.90;;;7.50;;
80637;SDS011;69991;51.760;19.528;2024-02-15T11:01:12;11.80;;;6.60;;
80637;SDS011;69991;51.760;19.528;2024-02-15T11:03:51;12.70;;;7.00;;
80637;SDS011;69991;51.760;19.528;2024-02-15T11:06:28;11.90;;;6.90;;
80637;SDS011;69991;51.760;19.528;2024-02-15T11:08:59;12.70;;;7.40;;
80637;SDS011;69991;51.760;19.528;2024-02-15T11:11:29;10.60;;;7.00;;
80637;SDS011;69991;51.760;19.528;2024-02-15T11:16:54;10.80;;;6.10;;
80637;SDS011;69991;51.760;19.528;2024-02-15T11:22:09;9.90;;;5.80;;
80637;SDS011;69991;51.760;19.528;2024-02-15T11:24:51;11.10;;;6.80;;
80637;SDS011;69991;51.760;19.528;2024-02-15T11:27:24;12.60;;;7.20;;
80637;SDS011;69991;51.760;19.528;2024-02-15T11:29:59;14.20;;;7.80;;
80637;SDS011;69991;51.760;19.528;2024-02-15T11:35:17;12.00;;;7.10;;
80637;SDS011;69991;51.760;19.528;2024-02-15T11:37:58;11.30;;;6.00;;
80637;SDS011;69991;51.760;19.528;2024-02-15T11:40:59;12.40;;;6.70;;
80637;SDS011;69991;51.760;19.528;2024-02-15T11:49:01;11.20;;;6.90;;
80637;SDS011;69991;51.760;19.528;2024-02-15T11:51:36;10.90;;;6.10;;
80637;SDS011;69991;51.760;19.528;2024-02-15T11:54:07;12.90;;;7.00;;
80637;SDS011;69991;51.760;19.528;2024-02-15T11:59:17;12.90;;;6.90;;
80637;SDS011;69991;51.760;19.528;2024-02-15T12:02:01;10.40;;;6.50;;
80637;SDS011;69991;51.760;19.528;2024-02-15T12:04:50;10.50;;;5.90;;
80637;SDS011;69991;51.760;19.528;2024-02-15T12:07:38;10.80;;;6.00;;
80637;SDS011;69991;51.760;19.528;2024-02-15T12:10:25;10.10;;;6.00;;
80637;SDS011;69991;51.760;19.528;2024-02-15T12:13:17;15.20;;;8.20;;
80637;SDS011;69991;51.760;19.528;2024-02-15T12:16:05;9.20;;;4.80;;
80637;SDS011;69991;51.760;19.528;2024-02-15T12:18:53;8.50;;;4.40;;
80637;SDS011;69991;51.760;19.528;2024-02-15T12:21:24;9.00;;;5.30;;
80637;SDS011;69991;51.760;19.528;2024-02-15T12:23:55;7.70;;;3.80;;
80637;SDS011;69991;51.760;19.528;2024-02-15T12:26:25;5.80;;;3.60;;
80637;SDS011;69991;51.760;19.528;2024-02-15T12:28:56;6.10;;;3.20;;
80637;SDS011;69991;51.760;19.528;2024-02-15T12:31:26;7.00;;;3.10;;
80637;SDS011;69991;51.760;19.528;2024-02-15T12:34:04;6.20;;;2.90;;
80637;SDS011;69991;51.760;19.528;2024-02-15T12:36:37;5.60;;;2.80;;
80637;SDS011;69991;51.760;19.528;2024-02-15T12:39:07;7.40;;;3.10;;
80637;SDS011;69991;51.760;19.528;2024-02-15T12:41:41;5.80;;;3.00;;
80637;SDS011;69991;51.760;19.528;2024-02-15T12:44:11;6.20;;;3.40;;
80637;SDS011;69991;51.760;19.528;2024-02-15T12:46:45;5.90;;;2.80;;
80637;SDS011;69991;51.760;19.528;2024-02-15T12:51:53;7.80;;;3.50;;
80637;SDS011;69991;51.760;19.528;2024-02-15T12:54:23;6.60;;;3.10;;
80637;SDS011;69991;51.760;19.528;2024-02-15T12:56:53;6.80;;;3.60;;
80637;SDS011;69991;51.760;19.528;2024-02-15T12:59:39;5.30;;;2.80;;
80637;SDS011;69991;51.760;19.528;2024-02-15T13:02:11;8.60;;;3.50;;
80637;SDS011;69991;51.760;19.528;2024-02-15T13:04:43;8.30;;;3.20;;
80637;SDS011;69991;51.760;19.528;2024-02-15T13:07:12;8.50;;;4.60;;
80637;SDS011;69991;51.760;19.528;2024-02-15T13:09:41;7.10;;;3.50;;
80637;SDS011;69991;51.760;19.528;2024-02-15T13:12:11;7.20;;;3.30;;
80637;SDS011;69991;51.760;19.528;2024-02-15T13:14:40;4.90;;;2.80;;
80637;SDS011;69991;51.760;19.528;2024-02-15T13:17:09;6.60;;;3.10;;
80637;SDS011;69991;51.760;19.528;2024-02-15T13:19:38;6.60;;;3.20;;
80637;SDS011;69991;51.760;19.528;2024-02-15T13:22:15;6.80;;;3.60;;
80637;SDS011;69991;51.760;19.528;2024-02-15T13:24:50;12.40;;;6.50;;
80637;SDS011;69991;51.760;19.528;2024-02-15T13:27:19;7.40;;;3.80;;
80637;SDS011;69991;51.760;19.528;2024-02-15T13:29:48;8.40;;;3.50;;
80637;SDS011;69991;51.760;19.528;2024-02-15T13:32:17;7.70;;;3.70;;
80637;SDS011;69991;51.760;19.528;2024-02-15T13:34:50;6.40;;;3.40;;
80637;SDS011;69991;51.760;19.528;2024-02-15T13:37:25;7.10;;;3.70;;
80637;SDS011;69991;51.760;19.528;2024-02-15T13:39:55;6.40;;;3.40;;
80637;SDS011;69991;51.760;19.528;2024-02-15T13:42:24;6.90;;;3.50;;
80637;SDS011;69991;51.760;19.528;2024-02-15T13:44:53;8.30;;;3.90;;
80637;SDS011;69991;51.760;19.528;2024-02-15T13:47:22;7.60;;;3.60;;
80637;SDS011;69991;51.760;19.528;2024-02-15T13:49:51;8.10;;;3.90;;
80637;SDS011;69991;51.760;19.528;2024-02-15T13:52:20;7.50;;;4.00;;
80637;SDS011;69991;51.760;19.528;2024-02-15T13:54:50;9.70;;;4.10;;
80637;SDS011;69991;51.760;19.528;2024-02-15T13:57:19;8.40;;;3.70;;
80637;SDS011;69991;51.760;19.528;2024-02-15T13:59:48;6.50;;;3.40;;
80637;SDS011;69991;51.760;19.528;2024-02-15T14:02:17;11.80;;;3.60;;
80637;SDS011;69991;51.760;19.528;2024-02-15T14:04:47;8.60;;;3.50;;
80637;SDS011;69991;51.760;19.528;2024-02-15T14:07:16;6.00;;;2.90;;
80637;SDS011;69991;51.760;19.528;2024-02-15T14:09:45;6.40;;;3.00;;
80637;SDS011;69991;51.760;19.528;2024-02-15T14:12:21;11.60;;;6.50;;
80637;SDS011;69991;51.760;19.528;2024-02-15T14:14:50;5.70;;;3.20;;
80637;SDS011;69991;51.760;19.528;2024-02-15T14:17:19;8.80;;;3.10;;
80637;SDS011;69991;51.760;19.528;2024-02-15T14:19:49;5.00;;;2.60;;
80637;SDS011;69991;51.760;19.528;2024-02-15T14:22:19;5.70;;;2.50;;
80637;SDS011;69991;51.760;19.528;2024-02-15T14:24:52;6.60;;;2.80;;
80637;SDS011;69991;51.760;19.528;2024-02-15T14:27:21;6.30;;;2.90;;
80637;SDS011;69991;51.760;19.528;2024-02-15T14:29:50;7.30;;;3.80;;
80637;SDS011;69991;51.760;19.528;2024-02-15T14:32:38;5.50;;;2.50;;
80637;SDS011;69991;51.760;19.528;2024-02-15T14:35:34;5.30;;;2.70;;
80637;SDS011;69991;51.760;19.528;2024-02-15T14:38:05;9.80;;;4.00;;
80637;SDS011;69991;51.760;19.528;2024-02-15T14:40:37;5.70;;;2.60;;
80637;SDS011;69991;51.760;19.528;2024-02-15T14:43:11;6.20;;;2.90;;
80637;SDS011;69991;51.760;19.528;2024-02-15T14:45:47;5.60;;;2.90;;
80637;SDS011;69991;51.760;19.528;2024-02-15T14:48:17;5.90;;;2.90;;
80637;SDS011;69991;51.760;19.528;2024-02-15T14:50:47;5.70;;;3.20;;
80637;SDS011;69991;51.760;19.528;2024-02-15T14:53:20;5.70;;;2.80;;
80637;SDS011;69991;51.760;19.528;2024-02-15T14:55:50;8.20;;;4.20;;
80637;SDS011;69991;51.760;19.528;2024-02-15T14:58:20;7.40;;;3.40;;
80637;SDS011;69991;51.760;19.528;2024-02-15T15:00:52;8.30;;;3.70;;
80637;SDS011;69991;51.760;19.528;2024-02-15T15:03:24;6.30;;;3.30;;